sensor_id;sensor_type;location;lat;lon;timestamp;temperature;humidity
73833;SHT30;62179;48.444;-4.464;2023-05-10T05:34:34;14.36;82.27
73833;SHT30;62179;48.444;-4.464;2023-05-10T05:37:00;14.38;82.27
73833;SHT30;62179;48.444;-4.464;2023-05-10T05:39:25;14.39;82.13
73833;SHT30;62179;48.444;-4.464;2023-05-10T05:41:50;14.41;82.19
73833;SHT30;62179;48.444;-4.464;2023-05-10T05:44:16;14.42;82.17
73833;SHT30;62179;48.444;-4.464;2023-05-10T05:46:41;14.42;82.21
73833;SHT30;62179;48.444;-4.464;2023-05-10T05:49:07;14.44;82.15
73833;SHT30;62179;48.444;-4.464;2023-05-10T05:51:32;14.45;82.35
73833;SHT30;62179;48.444;-4.464;2023-05-10T05:53:57;14.45;82.17
73833;SHT30;62179;48.444;-4.464;2023-05-10T05:56:23;14.46;82.50
73833;SHT30;62179;48.444;-4.464;2023-05-10T05:58:52;14.48;82.56
73833;SHT30;62179;48.444;-4.464;2023-05-10T06:01:18;14.49;82.68
73833;SHT30;62179;48.444;-4.464;2023-05-10T06:03:43;14.51;82.65
73833;SHT30;62179;48.444;-4.464;2023-05-10T06:06:09;14.51;82.53
73833;SHT30;62179;48.444;-4.464;2023-05-10T06:08:34;14.52;82.56
73833;SHT30;62179;48.444;-4.464;2023-05-10T06:11:00;14.55;82.67
73833;SHT30;62179;48.444;-4.464;2023-05-10T06:13:26;14.52;82.66
73833;SHT30;62179;48.444;-4.464;2023-05-10T06:15:57;14.58;82.69
73833;SHT30;62179;48.444;-4.464;2023-05-10T06:18:23;14.59;82.85
73833;SHT30;62179;48.444;-4.464;2023-05-10T06:20:49;14.61;82.64
73833;SHT30;62179;48.444;-4.464;2023-05-10T06:23:15;14.66;82.69
73833;SHT30;62179;48.444;-4.464;2023-05-10T06:25:40;14.69;82.74
73833;SHT30;62179;48.444;-4.464;2023-05-10T06:28:06;14.73;82.84
73833;SHT30;62179;48.444;-4.464;2023-05-10T06:30:31;14.72;82.77
73833;SHT30;62179;48.444;-4.464;2023-05-10T06:32:57;14.69;82.58
73833;SHT30;62179;48.444;-4.464;2023-05-10T06:35:22;14.68;82.21
73833;SHT30;62179;48.444;-4.464;2023-05-10T06:37:50;14.68;82.14
73833;SHT30;62179;48.444;-4.464;2023-05-10T06:40:16;14.62;81.67
73833;SHT30;62179;48.444;-4.464;2023-05-10T06:42:42;14.61;81.63
73833;SHT30;62179;48.444;-4.464;2023-05-10T06:45:08;14.56;81.44
73833;SHT30;62179;48.444;-4.464;2023-05-10T06:47:34;14.55;81.51
73833;SHT30;62179;48.444;-4.464;2023-05-10T06:49:59;14.55;81.64
73833;SHT30;62179;48.444;-4.464;2023-05-10T06:52:25;14.55;81.43
73833;SHT30;62179;48.444;-4.464;2023-05-10T06:54:51;14.55;81.78
73833;SHT30;62179;48.444;-4.464;2023-05-10T06:57:17;14.56;81.78
73833;SHT30;62179;48.444;-4.464;2023-05-10T06:59:43;14.59;81.51
73833;SHT30;62179;48.444;-4.464;2023-05-10T14:00:01;17.45;71.24
73833;SHT30;62179;48.444;-4.464;2023-05-10T14:02:27;17.53;69.60
73833;SHT30;62179;48.444;-4.464;2023-05-10T14:04:52;17.50;70.21
73833;SHT30;62179;48.444;-4.464;2023-05-10T14:07:18;17.46;70.77
73833;SHT30;62179;48.444;-4.464;2023-05-10T14:09:43;17.49;68.73
73833;SHT30;62179;48.444;-4.464;2023-05-10T14:12:08;17.50;69.09
73833;SHT30;62179;48.444;-4.464;2023-05-10T14:14:34;17.51;69.53
73833;SHT30;62179;48.444;-4.464;2023-05-10T14:16:59;17.54;69.39
73833;SHT30;62179;48.444;-4.464;2023-05-10T14:19:25;17.59;69.25
73833;SHT30;62179;48.444;-4.464;2023-05-10T14:21:52;17.57;69.26
73833;SHT30;62179;48.444;-4.464;2023-05-10T14:24:17;17.63;69.16
73833;SHT30;62179;48.444;-4.464;2023-05-10T14:26:45;17.62;69.34
73833;SHT30;62179;48.444;-4.464;2023-05-10T14:29:11;17.56;68.06
73833;SHT30;62179;48.444;-4.464;2023-05-10T14:31:36;17.51;69.29
73833;SHT30;62179;48.444;-4.464;2023-05-10T14:34:01;17.46;68.98
73833;SHT30;62179;48.444;-4.464;2023-05-10T14:36:28;17.46;69.32
73833;SHT30;62179;48.444;-4.464;2023-05-10T14:38:54;17.45;68.74
73833;SHT30;62179;48.444;-4.464;2023-05-10T14:41:19;17.47;70.03
73833;SHT30;62179;48.444;-4.464;2023-05-10T14:43:45;17.49;69.50
73833;SHT30;62179;48.444;-4.464;2023-05-10T14:46:11;17.51;69.92
73833;SHT30;62179;48.444;-4.464;2023-05-10T14:48:36;17.53;70.58
73833;SHT30;62179;48.444;-4.464;2023-05-10T14:51:01;17.53;69.59
73833;SHT30;62179;48.444;-4.464;2023-05-10T14:53:28;17.46;69.17
73833;SHT30;62179;48.444;-4.464;2023-05-10T14:55:55;17.45;70.87
73833;SHT30;62179;48.444;-4.464;2023-05-10T14:58:21;17.43;69.64
73833;SHT30;62179;48.444;-4.464;2023-05-10T15:00:46;17.47;70.85
73833;SHT30;62179;48.444;-4.464;2023-05-10T15:03:12;17.50;69.59
73833;SHT30;62179;48.444;-4.464;2023-05-10T15:05:37;17.43;69.64
73833;SHT30;62179;48.444;-4.464;2023-05-10T15:08:04;17.45;68.74
73833;SHT30;62179;48.444;-4.464;2023-05-10T15:10:31;17.45;68.78
73833;SHT30;62179;48.444;-4.464;2023-05-10T15:12:58;17.47;68.99
73833;SHT30;62179;48.444;-4.464;2023-05-10T15:15:24;17.43;69.00
73833;SHT30;62179;48.444;-4.464;2023-05-10T15:17:49;17.45;67.52
73833;SHT30;62179;48.444;-4.464;2023-05-10T15:20:15;17.45;69.29
73833;SHT30;62179;48.444;-4.464;2023-05-10T15:22:41;17.46;68.99
73833;SHT30;62179;48.444;-4.464;2023-05-10T15:25:06;17.49;68.44
73833;SHT30;62179;48.444;-4.464;2023-05-10T15:27:32;17.56;68.15
73833;SHT30;62179;48.444;-4.464;2023-05-10T15:29:57;17.69;69.42
73833;SHT30;62179;48.444;-4.464;2023-05-10T15:32:24;17.69;65.53
73833;SHT30;62179;48.444;-4.464;2023-05-10T15:34:49;17.66;67.90
73833;SHT30;62179;48.444;-4.464;2023-05-10T15:37:15;17.73;68.16
73833;SHT30;62179;48.444;-4.464;2023-05-10T15:39:40;17.74;67.64
73833;SHT30;62179;48.444;-4.464;2023-05-10T15:42:06;17.69;66.68
73833;SHT30;62179;48.444;-4.464;2023-05-10T15:44:31;17.70;67.32
73833;SHT30;62179;48.444;-4.464;2023-05-10T15:46:58;17.74;66.32
73833;SHT30;62179;48.444;-4.464;2023-05-10T15:49:24;17.70;67.75
73833;SHT30;62179;48.444;-4.464;2023-05-10T15:51:49;17.67;67.66
73833;SHT30;62179;48.444;-4.464;2023-05-10T15:54:15;17.62;66.43
73833;SHT30;62179;48.444;-4.464;2023-05-10T15:56:40;17.53;67.62
73833;SHT30;62179;48.444;-4.464;2023-05-10T15:59:06;17.51;67.36
73833;SHT30;62179;48.444;-4.464;2023-05-10T16:01:33;17.46;68.01
73833;SHT30;62179;48.444;-4.464;2023-05-10T16:03:58;17.43;67.01
73833;SHT30;62179;48.444;-4.464;2023-05-10T16:06:24;17.40;67.51
73833;SHT30;62179;48.444;-4.464;2023-05-10T16:08:50;17.33;67.52
73833;SHT30;62179;48.444;-4.464;2023-05-10T16:11:15;17.26;66.51
73833;SHT30;62179;48.444;-4.464;2023-05-10T16:13:41;17.23;67.47
73833;SHT30;62179;48.444;-4.464;2023-05-10T16:16:06;17.16;67.98
73833;SHT30;62179;48.444;-4.464;2023-05-10T16:18:33;17.12;66.71
73833;SHT30;62179;48.444;-4.464;2023-05-10T16:20:59;17.08;68.44
73833;SHT30;62179;48.444;-4.464;2023-05-10T16:23:26;17.05;69.18
73833;SHT30;62179;48.444;-4.464;2023-05-10T16:25:52;17.08;69.55
73833;SHT30;62179;48.444;-4.464;2023-05-10T16:28:18;17.11;69.03
73833;SHT30;62179;48.444;-4.464;2023-05-10T16:30:45;17.08;69.12
73833;SHT30;62179;48.444;-4.464;2023-05-10T16:33:12;17.05;67.70
73833;SHT30;62179;48.444;-4.464;2023-05-10T16:35:38;17.05;67.63
73833;SHT30;62179;48.444;-4.464;2023-05-10T16:38:03;17.08;67.64
73833;SHT30;62179;48.444;-4.464;2023-05-10T16:40:29;17.04;68.68
73833;SHT30;62179;48.444;-4.464;2023-05-10T16:42:55;17.04;68.47
73833;SHT30;62179;48.444;-4.464;2023-05-10T16:45:21;16.92;68.44
73833;SHT30;62179;48.444;-4.464;2023-05-10T16:47:46;16.88;68.89
73833;SHT30;62179;48.444;-4.464;2023-05-10T16:50:12;16.84;69.11
73833;SHT30;62179;48.444;-4.464;2023-05-10T16:52:39;16.81;69.98
73833;SHT30;62179;48.444;-4.464;2023-05-10T16:55:04;16.82;70.17
73833;SHT30;62179;48.444;-4.464;2023-05-10T16:57:31;16.74;70.28
73833;SHT30;62179;48.444;-4.464;2023-05-10T16:59:57;16.72;70.05
73833;SHT30;62179;48.444;-4.464;2023-05-10T17:02:23;16.70;70.00
73833;SHT30;62179;48.444;-4.464;2023-05-10T17:04:48;16.63;71.13
73833;SHT30;62179;48.444;-4.464;2023-05-10T17:07:14;16.60;71.08
73833;SHT30;62179;48.444;-4.464;2023-05-10T17:09:41;16.57;70.78
73833;SHT30;62179;48.444;-4.464;2023-05-10T17:12:08;16.54;72.00
73833;SHT30;62179;48.444;-4.464;2023-05-10T17:14:35;16.54;71.89
73833;SHT30;62179;48.444;-4.464;2023-05-10T17:17:00;16.53;72.25
73833;SHT30;62179;48.444;-4.464;2023-05-10T17:19:26;16.54;72.06
73833;SHT30;62179;48.444;-4.464;2023-05-10T17:21:52;16.49;71.58
73833;SHT30;62179;48.444;-4.464;2023-05-10T17:24:17;16.47;71.96
73833;SHT30;62179;48.444;-4.464;2023-05-10T17:26:43;16.46;72.49
73833;SHT30;62179;48.444;-4.464;2023-05-10T17:29:09;16.47;72.36
73833;SHT30;62179;48.444;-4.464;2023-05-10T17:31:35;16.46;71.69
73833;SHT30;62179;48.444;-4.464;2023-05-10T17:34:00;16.37;71.51
73833;SHT30;62179;48.444;-4.464;2023-05-10T17:36:26;16.29;71.44
73833;SHT30;62179;48.444;-4.464;2023-05-10T17:38:52;16.26;72.38
73833;SHT30;62179;48.444;-4.464;2023-05-10T17:41:18;16.24;72.51
73833;SHT30;62179;48.444;-4.464;2023-05-10T17:43:44;16.23;72.54
73833;SHT30;62179;48.444;-4.464;2023-05-10T17:46:09;16.14;72.59
73833;SHT30;62179;48.444;-4.464;2023-05-10T17:48:37;16.16;72.47
73833;SHT30;62179;48.444;-4.464;2023-05-10T17:51:02;16.10;72.37
73833;SHT30;62179;48.444;-4.464;2023-05-10T17:53:28;16.10;72.84
73833;SHT30;62179;48.444;-4.464;2023-05-10T17:55:54;16.10;73.03
73833;SHT30;62179;48.444;-4.464;2023-05-10T17:58:23;16.09;73.67
73833;SHT30;62179;48.444;-4.464;2023-05-10T18:00:48;16.09;73.53
73833;SHT30;62179;48.444;-4.464;2023-05-10T18:03:14;16.05;73.75
73833;SHT30;62179;48.444;-4.464;2023-05-10T18:05:39;16.00;74.02
73833;SHT30;62179;48.444;-4.464;2023-05-10T18:08:05;15.96;74.02
73833;SHT30;62179;48.444;-4.464;2023-05-10T18:10:31;15.92;74.22
73833;SHT30;62179;48.444;-4.464;2023-05-10T18:12:57;15.91;74.28
73833;SHT30;62179;48.444;-4.464;2023-05-10T18:15:23;15.91;74.23
73833;SHT30;62179;48.444;-4.464;2023-05-10T18:17:49;15.88;74.12
73833;SHT30;62179;48.444;-4.464;2023-05-10T18:20:15;15.82;74.57
73833;SHT30;62179;48.444;-4.464;2023-05-10T18:22:40;15.81;74.39
73833;SHT30;62179;48.444;-4.464;2023-05-10T18:25:06;15.81;74.51
73833;SHT30;62179;48.444;-4.464;2023-05-10T18:27:32;15.81;74.22
73833;SHT30;62179;48.444;-4.464;2023-05-10T18:29:57;15.77;74.27
73833;SHT30;62179;48.444;-4.464;2023-05-10T18:32:23;15.77;74.15
73833;SHT30;62179;48.444;-4.464;2023-05-10T18:34:48;15.75;74.07
73833;SHT30;62179;48.444;-4.464;2023-05-10T18:37:14;15.72;74.05
73833;SHT30;62179;48.444;-4.464;2023-05-10T18:39:39;15.71;73.85
73833;SHT30;62179;48.444;-4.464;2023-05-10T18:42:05;15.68;73.76
73833;SHT30;62179;48.444;-4.464;2023-05-10T18:44:31;15.63;73.77
73833;SHT30;62179;48.444;-4.464;2023-05-10T18:46:56;15.65;72.92
73833;SHT30;62179;48.444;-4.464;2023-05-10T18:49:23;15.59;72.74
73833;SHT30;62179;48.444;-4.464;2023-05-10T18:51:51;15.55;73.28
73833;SHT30;62179;48.444;-4.464;2023-05-10T18:54:16;15.58;73.61
73833;SHT30;62179;48.444;-4.464;2023-05-10T18:56:42;15.54;73.72
73833;SHT30;62179;48.444;-4.464;2023-05-10T18:59:10;15.55;73.97
73833;SHT30;62179;48.444;-4.464;2023-05-10T19:01:35;15.52;73.07
73833;SHT30;62179;48.444;-4.464;2023-05-10T19:04:01;15.48;73.11
73833;SHT30;62179;48.444;-4.464;2023-05-10T19:06:26;15.45;72.01
73833;SHT30;62179;48.444;-4.464;2023-05-10T19:08:52;15.44;73.59
73833;SHT30;62179;48.444;-4.464;2023-05-10T19:11:18;15.42;73.51
73833;SHT30;62179;48.444;-4.464;2023-05-10T19:13:44;15.41;73.00
73833;SHT30;62179;48.444;-4.464;2023-05-10T19:16:14;15.33;74.05
73833;SHT30;62179;48.444;-4.464;2023-05-10T19:18:43;15.30;73.96
73833;SHT30;62179;48.444;-4.464;2023-05-10T19:21:09;15.31;73.81
73833;SHT30;62179;48.444;-4.464;2023-05-10T19:23:39;15.27;74.64
73833;SHT30;62179;48.444;-4.464;2023-05-10T19:26:07;15.26;74.62
73833;SHT30;62179;48.444;-4.464;2023-05-10T19:28:33;15.27;74.63
73833;SHT30;62179;48.444;-4.464;2023-05-10T19:30:58;15.24;74.97
73833;SHT30;62179;48.444;-4.464;2023-05-10T19:33:24;15.23;75.42
73833;SHT30;62179;48.444;-4.464;2023-05-10T19:35:49;15.23;75.21
73833;SHT30;62179;48.444;-4.464;2023-05-10T19:38:24;15.21;75.43
73833;SHT30;62179;48.444;-4.464;2023-05-10T19:40:50;15.20;75.00
73833;SHT30;62179;48.444;-4.464;2023-05-10T19:43:26;15.10;75.40
73833;SHT30;62179;48.444;-4.464;2023-05-10T19:45:51;15.14;75.51
73833;SHT30;62179;48.444;-4.464;2023-05-10T19:48:17;15.08;75.42
73833;SHT30;62179;48.444;-4.464;2023-05-10T19:50:42;15.07;75.88
73833;SHT30;62179;48.444;-4.464;2023-05-10T19:53:08;15.03;75.88
73833;SHT30;62179;48.444;-4.464;2023-05-10T19:55:33;15.04;76.11
73833;SHT30;62179;48.444;-4.464;2023-05-10T19:58:00;15.06;75.94
73833;SHT30;62179;48.444;-4.464;2023-05-10T20:00:26;15.07;76.26
73833;SHT30;62179;48.444;-4.464;2023-05-10T20:02:52;15.06;76.17
73833;SHT30;62179;48.444;-4.464;2023-05-10T20:05:17;15.02;75.96
73833;SHT30;62179;48.444;-4.464;2023-05-10T20:07:43;15.00;76.07
73833;SHT30;62179;48.444;-4.464;2023-05-10T20:10:09;14.94;76.13
73833;SHT30;62179;48.444;-4.464;2023-05-10T20:12:35;14.97;76.36
73833;SHT30;62179;48.444;-4.464;2023-05-10T20:15:01;14.90;76.33
73833;SHT30;62179;48.444;-4.464;2023-05-10T20:17:26;14.92;76.39
73833;SHT30;62179;48.444;-4.464;2023-05-10T20:19:51;14.87;76.16
73833;SHT30;62179;48.444;-4.464;2023-05-10T20:22:17;14.86;76.17
73833;SHT30;62179;48.444;-4.464;2023-05-10T20:24:42;14.82;76.62
73833;SHT30;62179;48.444;-4.464;2023-05-10T20:27:08;14.82;76.26
